sensor_id;sensor_type;location;lat;lon;timestamp;P1;durP1;ratioP1;P2;durP2;ratioP2
69417;SDS011;56610;48.872;2.400;2023-07-16T00:00:03;6.18;;;3.33;;
69417;SDS011;56610;48.872;2.400;2023-07-16T00:02:29;6.72;;;3.35;;
69417;SDS011;56610;48.872;2.400;2023-07-16T00:04:55;5.47;;;3.25;;
69417;SDS011;56610;48.872;2.400;2023-07-16T00:07:21;5.82;;;3.25;;
69417;SDS011;56610;48.872;2.400;2023-07-16T00:09:46;7.53;;;3.47;;
69417;SDS011;56610;48.872;2.400;2023-07-16T00:12:12;7.25;;;3.20;;
69417;SDS011;56610;48.872;2.400;2023-07-16T00:14:37;6.22;;;3.55;;
69417;SDS011;56610;48.872;2.400;2023-07-16T00:17:03;6.15;;;3.30;;
69417;SDS011;56610;48.872;2.400;2023-07-16T00:19:29;6.53;;;3.10;;
69417;SDS011;56610;48.872;2.400;2023-07-16T00:21:54;5.72;;;3.40;;
69417;SDS011;56610;48.872;2.400;2023-07-16T00:24:20;5.95;;;3.42;;
69417;SDS011;56610;48.872;2.400;2023-07-16T00:26:45;6.43;;;3.20;;
69417;SDS011;56610;48.872;2.400;2023-07-16T00:29:11;9.00;;;3.35;;
69417;SDS011;56610;48.872;2.400;2023-07-16T00:31:36;6.15;;;3.70;;
69417;SDS011;56610;48.872;2.400;2023-07-16T00:34:02;6.95;;;3.60;;
69417;SDS011;56610;48.872;2.400;2023-07-16T00:36:28;6.35;;;3.15;;
69417;SDS011;56610;48.872;2.400;2023-07-16T00:38:53;8.95;;;3.88;;
69417;SDS011;56610;48.872;2.400;2023-07-16T00:41:19;6.40;;;3.47;;
69417;SDS011;56610;48.872;2.400;2023-07-16T00:43:45;7.45;;;4.00;;
69417;SDS011;56610;48.872;2.400;2023-07-16T00:46:10;6.70;;;3.42;;
69417;SDS011;56610;48.872;2.400;2023-07-16T00:48:37;8.25;;;3.38;;
69417;SDS011;56610;48.872;2.400;2023-07-16T00:51:03;8.02;;;4.03;;
69417;SDS011;56610;48.872;2.400;2023-07-16T00:53:30;5.70;;;3.15;;
69417;SDS011;56610;48.872;2.400;2023-07-16T00:55:55;5.50;;;3.47;;
69417;SDS011;56610;48.872;2.400;2023-07-16T00:58:21;7.55;;;3.88;;
69417;SDS011;56610;48.872;2.400;2023-07-16T01:00:47;6.45;;;3.85;;
69417;SDS011;56610;48.872;2.400;2023-07-16T01:03:13;6.90;;;3.83;;
69417;SDS011;56610;48.872;2.400;2023-07-16T01:05:50;9.85;;;3.88;;
69417;SDS011;56610;48.872;2.400;2023-07-16T01:08:31;6.75;;;4.25;;
69417;SDS011;56610;48.872;2.400;2023-07-16T01:10:59;7.70;;;3.70;;
69417;SDS011;56610;48.872;2.400;2023-07-16T01:13:26;9.55;;;4.20;;
69417;SDS011;56610;48.872;2.400;2023-07-16T01:15:52;8.20;;;4.10;;
69417;SDS011;56610;48.872;2.400;2023-07-16T01:18:18;8.77;;;4.32;;
69417;SDS011;56610;48.872;2.400;2023-07-16T01:20:44;5.20;;;3.63;;
69417;SDS011;56610;48.872;2.400;2023-07-16T01:25:46;8.05;;;3.97;;
69417;SDS011;56610;48.872;2.400;2023-07-16T01:31:14;7.82;;;4.13;;
69417;SDS011;56610;48.872;2.400;2023-07-16T01:36:08;7.32;;;4.07;;
69417;SDS011;56610;48.872;2.400;2023-07-16T01:38:34;6.53;;;4.15;;
69417;SDS011;56610;48.872;2.400;2023-07-16T01:41:01;7.95;;;4.50;;
69417;SDS011;56610;48.872;2.400;2023-07-16T01:43:27;9.80;;;4.47;;
69417;SDS011;56610;48.872;2.400;2023-07-16T01:45:52;10.13;;;5.13;;
69417;SDS011;56610;48.872;2.400;2023-07-16T01:48:29;6.38;;;4.40;;
69417;SDS011;56610;48.872;2.400;2023-07-16T01:50:59;7.13;;;4.10;;
69417;SDS011;56610;48.872;2.400;2023-07-16T01:53:25;8.65;;;4.50;;
69417;SDS011;56610;48.872;2.400;2023-07-16T01:55:50;9.25;;;4.55;;
69417;SDS011;56610;48.872;2.400;2023-07-16T01:58:16;9.45;;;4.70;;
69417;SDS011;56610;48.872;2.400;2023-07-16T02:00:42;8.82;;;4.57;;
69417;SDS011;56610;48.872;2.400;2023-07-16T02:03:07;10.45;;;4.85;;
69417;SDS011;56610;48.872;2.400;2023-07-16T02:05:33;8.45;;;4.80;;
69417;SDS011;56610;48.872;2.400;2023-07-16T02:07:59;8.93;;;4.60;;
69417;SDS011;56610;48.872;2.400;2023-07-16T02:10:25;10.90;;;4.75;;
69417;SDS011;56610;48.872;2.400;2023-07-16T02:12:51;8.50;;;4.75;;
69417;SDS011;56610;48.872;2.400;2023-07-16T02:15:16;8.27;;;4.97;;
69417;SDS011;56610;48.872;2.400;2023-07-16T02:17:43;10.32;;;5.03;;
69417;SDS011;56610;48.872;2.400;2023-07-16T02:20:09;9.30;;;4.60;;
69417;SDS011;56610;48.872;2.400;2023-07-16T02:22:38;8.32;;;4.20;;
69417;SDS011;56610;48.872;2.400;2023-07-16T02:25:04;8.95;;;4.80;;
69417;SDS011;56610;48.872;2.400;2023-07-16T02:27:29;11.60;;;4.60;;
69417;SDS011;56610;48.872;2.400;2023-07-16T02:29:55;6.18;;;3.90;;
69417;SDS011;56610;48.872;2.400;2023-07-16T02:32:21;8.75;;;4.50;;
69417;SDS011;56610;48.872;2.400;2023-07-16T02:34:47;6.32;;;3.97;;
69417;SDS011;56610;48.872;2.400;2023-07-16T02:37:12;7.20;;;4.13;;
69417;SDS011;56610;48.872;2.400;2023-07-16T02:39:38;6.40;;;3.67;;
69417;SDS011;56610;48.872;2.400;2023-07-16T02:42:06;7.75;;;4.00;;
69417;SDS011;56610;48.872;2.400;2023-07-16T02:44:31;8.80;;;4.07;;
69417;SDS011;56610;48.872;2.400;2023-07-16T02:46:57;7.07;;;4.40;;
69417;SDS011;56610;48.872;2.400;2023-07-16T02:49:22;6.07;;;3.95;;
69417;SDS011;56610;48.872;2.400;2023-07-16T02:51:48;7.95;;;3.83;;
69417;SDS011;56610;48.872;2.400;2023-07-16T02:54:13;6.78;;;3.97;;
69417;SDS011;56610;48.872;2.400;2023-07-16T02:56:39;5.75;;;3.63;;
69417;SDS011;56610;48.872;2.400;2023-07-16T02:59:05;6.97;;;4.00;;
69417;SDS011;56610;48.872;2.400;2023-07-16T03:01:31;7.35;;;3.80;;
69417;SDS011;56610;48.872;2.400;2023-07-16T03:03:56;6.90;;;4.07;;
69417;SDS011;56610;48.872;2.400;2023-07-16T03:06:22;7.60;;;4.10;;
69417;SDS011;56610;48.872;2.400;2023-07-16T03:08:47;6.30;;;3.72;;
69417;SDS011;56610;48.872;2.400;2023-07-16T03:11:13;5.63;;;4.00;;
69417;SDS011;56610;48.872;2.400;2023-07-16T03:13:39;6.70;;;4.40;;
69417;SDS011;56610;48.872;2.400;2023-07-16T03:16:04;9.13;;;4.32;;
69417;SDS011;56610;48.872;2.400;2023-07-16T03:18:30;7.55;;;4.20;;
69417;SDS011;56610;48.872;2.400;2023-07-16T03:20:57;6.88;;;4.03;;
69417;SDS011;56610;48.872;2.400;2023-07-16T03:23:23;9.10;;;3.95;;
69417;SDS011;56610;48.872;2.400;2023-07-16T03:25:49;9.48;;;4.05;;
69417;SDS011;56610;48.872;2.400;2023-07-16T03:28:15;9.63;;;4.75;;
69417;SDS011;56610;48.872;2.400;2023-07-16T03:30:44;8.13;;;4.85;;
69417;SDS011;56610;48.872;2.400;2023-07-16T03:33:14;10.05;;;4.45;;
69417;SDS011;56610;48.872;2.400;2023-07-16T03:35:42;10.73;;;4.80;;
69417;SDS011;56610;48.872;2.400;2023-07-16T03:38:08;9.00;;;4.80;;
69417;SDS011;56610;48.872;2.400;2023-07-16T03:40:35;8.90;;;4.68;;
69417;SDS011;56610;48.872;2.400;2023-07-16T03:43:00;5.55;;;4.25;;
69417;SDS011;56610;48.872;2.400;2023-07-16T03:45:26;10.98;;;5.15;;
69417;SDS011;56610;48.872;2.400;2023-07-16T03:47:51;10.57;;;3.90;;
69417;SDS011;56610;48.872;2.400;2023-07-16T03:50:17;9.80;;;4.75;;
69417;SDS011;56610;48.872;2.400;2023-07-16T03:52:43;7.00;;;4.15;;
69417;SDS011;56610;48.872;2.400;2023-07-16T03:55:09;7.70;;;4.55;;
69417;SDS011;56610;48.872;2.400;2023-07-16T03:57:35;7.25;;;3.92;;
69417;SDS011;56610;48.872;2.400;2023-07-16T04:00:01;9.27;;;4.60;;
69417;SDS011;56610;48.872;2.400;2023-07-16T04:02:29;7.07;;;4.40;;
69417;SDS011;56610;48.872;2.400;2023-07-16T04:04:54;5.50;;;3.85;;
69417;SDS011;56610;48.872;2.400;2023-07-16T04:07:20;9.73;;;4.07;;
69417;SDS011;56610;48.872;2.400;2023-07-16T04:09:46;8.70;;;4.35;;
69417;SDS011;56610;48.872;2.400;2023-07-16T04:12:11;8.30;;;4.38;;
69417;SDS011;56610;48.872;2.400;2023-07-16T04:14:37;8.30;;;4.22;;
69417;SDS011;56610;48.872;2.400;2023-07-16T04:17:03;9.35;;;4.43;;
69417;SDS011;56610;48.872;2.400;2023-07-16T04:19:28;9.48;;;4.82;;
69417;SDS011;56610;48.872;2.400;2023-07-16T04:21:54;11.10;;;4.10;;
69417;SDS011;56610;48.872;2.400;2023-07-16T04:24:20;6.70;;;4.35;;
69417;SDS011;56610;48.872;2.400;2023-07-16T04:26:45;9.15;;;4.72;;
69417;SDS011;56610;48.872;2.400;2023-07-16T04:29:11;7.20;;;4.63;;
69417;SDS011;56610;48.872;2.400;2023-07-16T04:31:36;7.07;;;3.92;;
69417;SDS011;56610;48.872;2.400;2023-07-16T04:34:02;9.15;;;4.25;;
69417;SDS011;56610;48.872;2.400;2023-07-16T04:36:27;8.30;;;4.90;;
69417;SDS011;56610;48.872;2.400;2023-07-16T04:38:53;7.75;;;4.43;;
69417;SDS011;56610;48.872;2.400;2023-07-16T04:41:19;8.68;;;4.70;;
69417;SDS011;56610;48.872;2.400;2023-07-16T04:43:44;6.43;;;4.32;;
69417;SDS011;56610;48.872;2.400;2023-07-16T04:46:10;10.07;;;5.15;;
69417;SDS011;56610;48.872;2.400;2023-07-16T04:48:36;8.38;;;4.75;;
69417;SDS011;56610;48.872;2.400;2023-07-16T04:51:02;9.50;;;5.00;;
69417;SDS011;56610;48.872;2.400;2023-07-16T04:53:28;7.28;;;4.20;;
69417;SDS011;56610;48.872;2.400;2023-07-16T04:55:53;8.80;;;4.95;;
69417;SDS011;56610;48.872;2.400;2023-07-16T04:58:19;7.50;;;4.65;;
69417;SDS011;56610;48.872;2.400;2023-07-16T05:00:44;7.05;;;4.25;;
69417;SDS011;56610;48.872;2.400;2023-07-16T05:03:10;9.88;;;4.40;;
69417;SDS011;56610;48.872;2.400;2023-07-16T05:05:36;7.55;;;3.90;;
69417;SDS011;56610;48.872;2.400;2023-07-16T05:08:01;11.15;;;4.60;;
69417;SDS011;56610;48.872;2.400;2023-07-16T05:10:27;8.50;;;4.40;;
69417;SDS011;56610;48.872;2.400;2023-07-16T05:12:53;10.65;;;4.72;;
69417;SDS011;56610;48.872;2.400;2023-07-16T05:15:19;8.77;;;4.38;;
69417;SDS011;56610;48.872;2.400;2023-07-16T05:17:44;11.20;;;4.85;;
69417;SDS011;56610;48.872;2.400;2023-07-16T05:20:10;8.25;;;4.50;;
69417;SDS011;56610;48.872;2.400;2023-07-16T05:22:36;10.40;;;5.07;;
69417;SDS011;56610;48.872;2.400;2023-07-16T05:25:02;10.35;;;5.35;;
69417;SDS011;56610;48.872;2.400;2023-07-16T05:27:28;9.18;;;4.85;;
69417;SDS011;56610;48.872;2.400;2023-07-16T05:29:53;11.40;;;4.40;;
69417;SDS011;56610;48.872;2.400;2023-07-16T05:32:19;8.23;;;4.97;;
69417;SDS011;56610;48.872;2.400;2023-07-16T05:34:46;12.93;;;5.30;;
69417;SDS011;56610;48.872;2.400;2023-07-16T05:37:12;10.02;;;5.28;;
69417;SDS011;56610;48.872;2.400;2023-07-16T05:39:38;10.40;;;5.20;;
69417;SDS011;56610;48.872;2.400;2023-07-16T05:42:04;7.47;;;4.97;;
69417;SDS011;56610;48.872;2.400;2023-07-16T05:44:30;10.80;;;5.22;;
69417;SDS011;56610;48.872;2.400;2023-07-16T05:46:55;9.73;;;5.28;;
69417;SDS011;56610;48.872;2.400;2023-07-16T05:49:21;10.77;;;5.68;;
69417;SDS011;56610;48.872;2.400;2023-07-16T05:51:47;10.68;;;5.50;;
69417;SDS011;56610;48.872;2.400;2023-07-16T05:54:13;8.23;;;5.10;;
69417;SDS011;56610;48.872;2.400;2023-07-16T05:56:39;10.27;;;4.90;;
69417;SDS011;56610;48.872;2.400;2023-07-16T05:59:06;7.55;;;4.82;;
69417;SDS011;56610;48.872;2.400;2023-07-16T06:01:31;9.70;;;5.35;;
69417;SDS011;56610;48.872;2.400;2023-07-16T06:03:57;10.40;;;5.20;;
69417;SDS011;56610;48.872;2.400;2023-07-16T06:06:22;9.43;;;5.43;;
69417;SDS011;56610;48.872;2.400;2023-07-16T06:08:48;8.75;;;5.18;;
69417;SDS011;56610;48.872;2.400;2023-07-16T06:11:13;9.38;;;5.35;;
69417;SDS011;56610;48.872;2.400;2023-07-16T06:13:39;9.23;;;5.05;;
69417;SDS011;56610;48.872;2.400;2023-07-16T06:16:04;10.93;;;5.82;;
69417;SDS011;56610;48.872;2.400;2023-07-16T06:18:30;13.02;;;5.72;;
69417;SDS011;56610;48.872;2.400;2023-07-16T06:20:56;12.68;;;6.10;;
69417;SDS011;56610;48.872;2.400;2023-07-16T06:23:22;12.40;;;5.97;;
69417;SDS011;56610;48.872;2.400;2023-07-16T06:25:47;10.63;;;5.55;;
69417;SDS011;56610;48.872;2.400;2023-07-16T06:28:14;12.38;;;6.15;;
69417;SDS011;56610;48.872;2.400;2023-07-16T06:30:40;8.85;;;5.57;;
69417;SDS011;56610;48.872;2.400;2023-07-16T06:33:05;10.43;;;5.65;;
69417;SDS011;56610;48.872;2.400;2023-07-16T06:35:31;11.60;;;5.85;;
69417;SDS011;56610;48.872;2.400;2023-07-16T06:37:57;12.27;;;6.22;;
69417;SDS011;56610;48.872;2.400;2023-07-16T06:40:23;11.43;;;5.78;;
69417;SDS011;56610;48.872;2.400;2023-07-16T06:42:49;11.77;;;5.57;;
69417;SDS011;56610;48.872;2.400;2023-07-16T06:45:15;11.65;;;5.85;;
69417;SDS011;56610;48.872;2.400;2023-07-16T06:47:42;9.73;;;5.63;;
69417;SDS011;56610;48.872;2.400;2023-07-16T06:50:07;13.38;;;5.85;;
69417;SDS011;56610;48.872;2.400;2023-07-16T06:52:33;11.30;;;6.22;;
69417;SDS011;56610;48.872;2.400;2023-07-16T06:54:59;11.82;;;6.00;;
69417;SDS011;56610;48.872;2.400;2023-07-16T06:57:24;12.15;;;5.97;;
69417;SDS011;56610;48.872;2.400;2023-07-16T06:59:50;9.57;;;5.25;;
69417;SDS011;56610;48.872;2.400;2023-07-16T07:02:16;12.18;;;6.00;;
69417;SDS011;56610;48.872;2.400;2023-07-16T07:04:42;11.82;;;5.70;;
69417;SDS011;56610;48.872;2.400;2023-07-16T07:07:08;11.73;;;5.90;;
69417;SDS011;56610;48.872;2.400;2023-07-16T07:09:34;8.77;;;5.07;;
69417;SDS011;56610;48.872;2.400;2023-07-16T07:12:00;10.32;;;5.60;;
69417;SDS011;56610;48.872;2.400;2023-07-16T07:14:26;13.57;;;5.72;;
69417;SDS011;56610;48.872;2.400;2023-07-16T07:16:51;10.27;;;6.00;;
69417;SDS011;56610;48.872;2.400;2023-07-16T07:19:17;10.48;;;5.88;;
69417;SDS011;56610;48.872;2.400;2023-07-16T07:21:42;10.90;;;5.70;;
69417;SDS011;56610;48.872;2.400;2023-07-16T07:24:08;14.15;;;6.32;;
69417;SDS011;56610;48.872;2.400;2023-07-16T07:26:34;13.05;;;5.78;;
69417;SDS011;56610;48.872;2.400;2023-07-16T07:28:59;8.98;;;5.40;;
69417;SDS011;56610;48.872;2.400;2023-07-16T07:31:25;10.93;;;4.97;;
69417;SDS011;56610;48.872;2.400;2023-07-16T07:33:50;10.98;;;5.43;;
69417;SDS011;56610;48.872;2.400;2023-07-16T07:36:18;13.60;;;5.93;;
69417;SDS011;56610;48.872;2.400;2023-07-16T07:38:44;11.38;;;5.25;;
69417;SDS011;56610;48.872;2.400;2023-07-16T07:41:10;9.57;;;5.03;;
69417;SDS011;56610;48.872;2.400;2023-07-16T07:43:35;11.18;;;6.00;;
69417;SDS011;56610;48.872;2.400;2023-07-16T07:46:01;11.00;;;5.10;;
69417;SDS011;56610;48.872;2.400;2023-07-16T07:48:26;10.43;;;5.13;;
69417;SDS011;56610;48.872;2.400;2023-07-16T07:50:52;12.82;;;5.82;;
69417;SDS011;56610;48.872;2.400;2023-07-16T07:53:17;8.27;;;4.93;;
69417;SDS011;56610;48.872;2.400;2023-07-16T07:55:44;11.50;;;5.18;;
69417;SDS011;56610;48.872;2.400;2023-07-16T07:58:10;10.43;;;5.20;;
69417;SDS011;56610;48.872;2.400;2023-07-16T08:00:35;8.02;;;4.68;;
69417;SDS011;56610;48.872;2.400;2023-07-16T08:03:01;12.93;;;5.05;;
69417;SDS011;56610;48.872;2.400;2023-07-16T08:05:27;9.30;;;5.00;;
69417;SDS011;56610;48.872;2.400;2023-07-16T08:07:52;9.07;;;4.82;;
69417;SDS011;56610;48.872;2.400;2023-07-16T08:10:18;7.93;;;4.60;;
69417;SDS011;56610;48.872;2.400;2023-07-16T08:12:44;8.55;;;4.82;;
69417;SDS011;56610;48.872;2.400;2023-07-16T08:15:10;9.90;;;4.90;;
69417;SDS011;56610;48.872;2.400;2023-07-16T08:17:43;9.38;;;4.68;;
69417;SDS011;56610;48.872;2.400;2023-07-16T08:20:09;10.15;;;5.18;;
69417;SDS011;56610;48.872;2.400;2023-07-16T08:22:35;8.85;;;5.03;;
69417;SDS011;56610;48.872;2.400;2023-07-16T08:25:01;12.70;;;4.60;;
69417;SDS011;56610;48.872;2.400;2023-07-16T08:27:28;10.52;;;5.15;;
69417;SDS011;56610;48.872;2.400;2023-07-16T08:29:54;7.05;;;4.60;;
69417;SDS011;56610;48.872;2.400;2023-07-16T08:32:20;8.77;;;4.63;;
69417;SDS011;56610;48.872;2.400;2023-07-16T08:34:46;11.60;;;4.63;;
69417;SDS011;56610;48.872;2.400;2023-07-16T08:37:12;9.88;;;4.35;;
69417;SDS011;56610;48.872;2.400;2023-07-16T08:39:38;7.75;;;4.63;;
69417;SDS011;56610;48.872;2.400;2023-07-16T08:42:04;8.02;;;4.80;;
69417;SDS011;56610;48.872;2.400;2023-07-16T08:44:30;6.63;;;4.30;;
69417;SDS011;56610;48.872;2.400;2023-07-16T08:46:56;7.80;;;4.80;;
69417;SDS011;56610;48.872;2.400;2023-07-16T08:49:22;9.60;;;4.55;;
69417;SDS011;56610;48.872;2.400;2023-07-16T08:51:48;8.15;;;4.20;;
69417;SDS011;56610;48.872;2.400;2023-07-16T08:54:14;7.55;;;4.20;;
69417;SDS011;56610;48.872;2.400;2023-07-16T08:56:42;8.18;;;4.88;;
69417;SDS011;56610;48.872;2.400;2023-07-16T08:59:09;8.30;;;4.90;;
69417;SDS011;56610;48.872;2.400;2023-07-16T09:01:36;8.25;;;4.95;;
69417;SDS011;56610;48.872;2.400;2023-07-16T09:04:02;11.32;;;4.75;;
69417;SDS011;56610;48.872;2.400;2023-07-16T09:06:28;8.95;;;4.72;;
69417;SDS011;56610;48.872;2.400;2023-07-16T09:08:53;8.45;;;4.30;;
69417;SDS011;56610;48.872;2.400;2023-07-16T09:11:20;6.60;;;4.30;;
69417;SDS011;56610;48.872;2.400;2023-07-16T09:13:47;8.35;;;4.30;;
69417;SDS011;56610;48.872;2.400;2023-07-16T09:16:13;7.70;;;4.10;;
69417;SDS011;56610;48.872;2.400;2023-07-16T09:18:41;8.05;;;4.20;;
69417;SDS011;56610;48.872;2.400;2023-07-16T09:21:07;7.72;;;4.25;;
69417;SDS011;56610;48.872;2.400;2023-07-16T09:23:33;8.60;;;4.25;;
69417;SDS011;56610;48.872;2.400;2023-07-16T09:25:59;8.70;;;4.47;;
69417;SDS011;56610;48.872;2.400;2023-07-16T09:28:25;8.77;;;4.43;;
69417;SDS011;56610;48.872;2.400;2023-07-16T09:30:51;9.35;;;4.03;;
69417;SDS011;56610;48.872;2.400;2023-07-16T09:35:45;8.73;;;4.28;;
69417;SDS011;56610;48.872;2.400;2023-07-16T09:38:13;9.35;;;4.18;;
69417;SDS011;56610;48.872;2.400;2023-07-16T09:40:39;5.53;;;3.40;;
69417;SDS011;56610;48.872;2.400;2023-07-16T09:43:07;6.82;;;3.40;;
69417;SDS011;56610;48.872;2.400;2023-07-16T09:45:34;6.43;;;3.50;;
69417;SDS011;56610;48.872;2.400;2023-07-16T09:48:00;9.57;;;3.75;;
69417;SDS011;56610;48.872;2.400;2023-07-16T09:50:50;7.03;;;3.50;;
69417;SDS011;56610;48.872;2.400;2023-07-16T09:53:18;6.30;;;3.75;;
69417;SDS011;56610;48.872;2.400;2023-07-16T09:55:48;6.95;;;3.92;;
69417;SDS011;56610;48.872;2.400;2023-07-16T09:58:14;6.78;;;3.70;;
69417;SDS011;56610;48.872;2.400;2023-07-16T10:00:41;8.07;;;3.65;;
69417;SDS011;56610;48.872;2.400;2023-07-16T10:03:08;10.90;;;4.35;;
69417;SDS011;56610;48.872;2.400;2023-07-16T10:05:37;8.32;;;4.18;;
69417;SDS011;56610;48.872;2.400;2023-07-16T10:08:03;7.35;;;4.10;;
69417;SDS011;56610;48.872;2.400;2023-07-16T10:10:39;10.68;;;3.85;;
69417;SDS011;56610;48.872;2.400;2023-07-16T10:13:11;9.45;;;3.95;;
69417;SDS011;56610;48.872;2.400;2023-07-16T10:15:38;8.05;;;4.10;;
69417;SDS011;56610;48.872;2.400;2023-07-16T10:18:04;6.03;;;3.73;;
69417;SDS011;56610;48.872;2.400;2023-07-16T10:20:31;7.63;;;3.88;;
69417;SDS011;56610;48.872;2.400;2023-07-16T10:23:18;6.60;;;3.78;;
69417;SDS011;56610;48.872;2.400;2023-07-16T10:25:59;8.38;;;4.50;;
69417;SDS011;56610;48.872;2.400;2023-07-16T10:28:31;6.63;;;3.67;;
69417;SDS011;56610;48.872;2.400;2023-07-16T10:30:57;6.82;;;3.55;;
69417;SDS011;56610;48.872;2.400;2023-07-16T10:33:23;6.32;;;3.45;;
69417;SDS011;56610;48.872;2.400;2023-07-16T10:35:49;9.80;;;4.20;;
69417;SDS011;56610;48.872;2.400;2023-07-16T10:38:14;6.28;;;4.03;;
69417;SDS011;56610;48.872;2.400;2023-07-16T10:40:44;6.15;;;3.90;;
69417;SDS011;56610;48.872;2.400;2023-07-16T10:43:11;7.38;;;3.95;;
69417;SDS011;56610;48.872;2.400;2023-07-16T10:45:37;5.47;;;3.80;;
69417;SDS011;56610;48.872;2.400;2023-07-16T10:48:03;7.78;;;4.00;;
69417;SDS011;56610;48.872;2.400;2023-07-16T10:50:31;6.30;;;3.97;;
69417;SDS011;56610;48.872;2.400;2023-07-16T10:52:59;6.20;;;3.50;;
69417;SDS011;56610;48.872;2.400;2023-07-16T10:55:28;7.07;;;4.22;;
69417;SDS011;56610;48.872;2.400;2023-07-16T10:57:56;7.00;;;4.18;;
69417;SDS011;56610;48.872;2.400;2023-07-16T11:00:22;5.82;;;3.35;;
69417;SDS011;56610;48.872;2.400;2023-07-16T11:02:49;6.72;;;3.45;;
69417;SDS011;56610;48.872;2.400;2023-07-16T11:05:16;8.68;;;3.50;;
69417;SDS011;56610;48.872;2.400;2023-07-16T11:07:45;5.38;;;3.38;;
69417;SDS011;56610;48.872;2.400;2023-07-16T11:10:12;5.57;;;3.13;;
69417;SDS011;56610;48.872;2.400;2023-07-16T11:15:06;5.93;;;3.40;;
69417;SDS011;56610;48.872;2.400;2023-07-16T11:17:33;6.07;;;3.20;;
69417;SDS011;56610;48.872;2.400;2023-07-16T11:19:59;6.70;;;2.88;;
69417;SDS011;56610;48.872;2.400;2023-07-16T11:22:25;6.75;;;3.25;;
69417;SDS011;56610;48.872;2.400;2023-07-16T11:24:52;4.32;;;3.17;;
69417;SDS011;56610;48.872;2.400;2023-07-16T11:27:19;5.13;;;3.20;;
69417;SDS011;56610;48.872;2.400;2023-07-16T11:29:46;5.18;;;3.25;;
69417;SDS011;56610;48.872;2.400;2023-07-16T11:32:59;5.63;;;2.92;;
69417;SDS011;56610;48.872;2.400;2023-07-16T11:35:03;6.60;;;3.03;;
69417;SDS011;56610;48.872;2.400;2023-07-16T11:37:31;5.30;;;3.30;;
69417;SDS011;56610;48.872;2.400;2023-07-16T11:39:59;5.00;;;3.10;;
69417;SDS011;56610;48.872;2.400;2023-07-16T11:42:34;4.78;;;3.15;;
69417;SDS011;56610;48.872;2.400;2023-07-16T11:45:02;7.97;;;3.28;;
69417;SDS011;56610;48.872;2.400;2023-07-16T11:47:28;6.78;;;3.33;;
69417;SDS011;56610;48.872;2.400;2023-07-16T11:49:54;6.10;;;3.22;;
69417;SDS011;56610;48.872;2.400;2023-07-16T11:52:29;4.70;;;3.40;;
69417;SDS011;56610;48.872;2.400;2023-07-16T11:54:56;6.07;;;3.40;;
69417;SDS011;56610;48.872;2.400;2023-07-16T11:57:26;5.53;;;3.10;;
69417;SDS011;56610;48.872;2.400;2023-07-16T11:59:52;10.57;;;3.50;;
69417;SDS011;56610;48.872;2.400;2023-07-16T12:02:18;6.35;;;3.17;;
69417;SDS011;56610;48.872;2.400;2023-07-16T12:04:44;6.75;;;3.58;;
69417;SDS011;56610;48.872;2.400;2023-07-16T12:07:10;7.38;;;3.72;;
69417;SDS011;56610;48.872;2.400;2023-07-16T12:09:35;7.18;;;3.88;;
69417;SDS011;56610;48.872;2.400;2023-07-16T12:12:01;5.68;;;3.33;;
69417;SDS011;56610;48.872;2.400;2023-07-16T12:14:27;6.88;;;3.15;;
69417;SDS011;56610;48.872;2.400;2023-07-16T12:16:53;5.82;;;3.60;;
69417;SDS011;56610;48.872;2.400;2023-07-16T12:19:19;4.43;;;3.50;;
69417;SDS011;56610;48.872;2.400;2023-07-16T12:21:44;5.22;;;3.40;;
69417;SDS011;56610;48.872;2.400;2023-07-16T12:24:10;4.95;;;3.67;;
69417;SDS011;56610;48.872;2.400;2023-07-16T12:26:36;6.07;;;4.03;;
69417;SDS011;56610;48.872;2.400;2023-07-16T12:29:02;5.60;;;3.30;;
69417;SDS011;56610;48.872;2.400;2023-07-16T12:31:29;4.63;;;3.33;;
69417;SDS011;56610;48.872;2.400;2023-07-16T12:36:22;5.75;;;3.75;;
69417;SDS011;56610;48.872;2.400;2023-07-16T12:38:47;5.20;;;3.80;;
69417;SDS011;56610;48.872;2.400;2023-07-16T12:41:13;3.83;;;3.20;;
69417;SDS011;56610;48.872;2.400;2023-07-16T12:43:40;6.40;;;4.40;;
69417;SDS011;56610;48.872;2.400;2023-07-16T12:46:06;6.93;;;3.78;;
69417;SDS011;56610;48.872;2.400;2023-07-16T12:48:31;6.97;;;3.75;;
69417;SDS011;56610;48.872;2.400;2023-07-16T12:50:57;5.50;;;4.00;;
69417;SDS011;56610;48.872;2.400;2023-07-16T12:53:23;6.60;;;3.80;;
69417;SDS011;56610;48.872;2.400;2023-07-16T12:55:49;6.97;;;3.90;;
69417;SDS011;56610;48.872;2.400;2023-07-16T12:58:15;5.70;;;3.47;;
69417;SDS011;56610;48.872;2.400;2023-07-16T13:00:41;6.32;;;3.67;;
69417;SDS011;56610;48.872;2.400;2023-07-16T13:03:06;6.25;;;3.83;;
69417;SDS011;56610;48.872;2.400;2023-07-16T13:05:36;5.05;;;3.85;;
69417;SDS011;56610;48.872;2.400;2023-07-16T13:08:04;5.07;;;3.70;;
69417;SDS011;56610;48.872;2.400;2023-07-16T13:10:30;6.25;;;3.75;;
69417;SDS011;56610;48.872;2.400;2023-07-16T13:12:56;6.43;;;3.67;;
69417;SDS011;56610;48.872;2.400;2023-07-16T13:15:21;6.97;;;3.78;;
69417;SDS011;56610;48.872;2.400;2023-07-16T13:17:47;5.50;;;3.60;;
69417;SDS011;56610;48.872;2.400;2023-07-16T13:20:13;5.35;;;3.47;;
69417;SDS011;56610;48.872;2.400;2023-07-16T13:22:39;5.40;;;3.50;;
69417;SDS011;56610;48.872;2.400;2023-07-16T13:25:04;5.22;;;3.60;;
69417;SDS011;56610;48.872;2.400;2023-07-16T13:27:30;3.80;;;3.30;;
69417;SDS011;56610;48.872;2.400;2023-07-16T13:29:56;6.20;;;3.80;;
69417;SDS011;56610;48.872;2.400;2023-07-16T13:32:21;6.55;;;3.75;;
69417;SDS011;56610;48.872;2.400;2023-07-16T13:34:47;6.13;;;3.15;;
69417;SDS011;56610;48.872;2.400;2023-07-16T13:37:13;5.00;;;3.45;;
69417;SDS011;56610;48.872;2.400;2023-07-16T13:39:39;6.72;;;3.60;;
69417;SDS011;56610;48.872;2.400;2023-07-16T13:42:04;4.32;;;3.33;;
69417;SDS011;56610;48.872;2.400;2023-07-16T13:44:31;5.40;;;3.53;;
69417;SDS011;56610;48.872;2.400;2023-07-16T13:46:58;4.10;;;3.13;;
69417;SDS011;56610;48.872;2.400;2023-07-16T13:49:23;4.75;;;3.58;;
69417;SDS011;56610;48.872;2.400;2023-07-16T13:51:49;4.57;;;3.47;;
69417;SDS011;56610;48.872;2.400;2023-07-16T13:54:14;4.47;;;3.13;;
69417;SDS011;56610;48.872;2.400;2023-07-16T13:56:40;5.00;;;3.45;;
69417;SDS011;56610;48.872;2.400;2023-07-16T13:59:06;5.63;;;3.83;;
69417;SDS011;56610;48.872;2.400;2023-07-16T14:01:32;5.38;;;3.80;;
69417;SDS011;56610;48.872;2.400;2023-07-16T14:03:57;3.72;;;3.05;;
69417;SDS011;56610;48.872;2.400;2023-07-16T14:06:23;5.00;;;3.58;;
69417;SDS011;56610;48.872;2.400;2023-07-16T14:08:48;7.32;;;3.70;;
69417;SDS011;56610;48.872;2.400;2023-07-16T14:11:14;4.95;;;3.65;;
69417;SDS011;56610;48.872;2.400;2023-07-16T14:13:43;5.35;;;3.78;;
69417;SDS011;56610;48.872;2.400;2023-07-16T14:16:08;9.38;;;4.60;;
69417;SDS011;56610;48.872;2.400;2023-07-16T14:18:34;7.80;;;4.18;;
69417;SDS011;56610;48.872;2.400;2023-07-16T14:21:00;7.10;;;4.38;;
69417;SDS011;56610;48.872;2.400;2023-07-16T14:25:53;6.10;;;3.90;;
69417;SDS011;56610;48.872;2.400;2023-07-16T14:28:18;4.30;;;3.28;;
69417;SDS011;56610;48.872;2.400;2023-07-16T14:30:44;4.82;;;3.50;;
69417;SDS011;56610;48.872;2.400;2023-07-16T14:33:10;6.07;;;3.70;;
69417;SDS011;56610;48.872;2.400;2023-07-16T14:35:35;6.20;;;3.40;;
69417;SDS011;56610;48.872;2.400;2023-07-16T14:38:01;6.35;;;3.80;;
69417;SDS011;56610;48.872;2.400;2023-07-16T14:40:27;6.07;;;3.38;;
69417;SDS011;56610;48.872;2.400;2023-07-16T14:42:52;3.72;;;3.10;;
69417;SDS011;56610;48.872;2.400;2023-07-16T14:45:18;6.43;;;3.15;;
69417;SDS011;56610;48.872;2.400;2023-07-16T14:47:43;5.28;;;3.30;;
69417;SDS011;56610;48.872;2.400;2023-07-16T14:50:09;5.22;;;3.63;;
69417;SDS011;56610;48.872;2.400;2023-07-16T14:52:35;4.50;;;2.83;;
69417;SDS011;56610;48.872;2.400;2023-07-16T14:55:02;5.15;;;3.45;;
69417;SDS011;56610;48.872;2.400;2023-07-16T14:57:29;4.53;;;3.03;;